sensor_id;sensor_type;location;lat;lon;timestamp;P1;durP1;ratioP1;P2;durP2;ratioP2
76675;SDS011;69204;55.350;36.906;2023-07-28T00:03:13;41.33;;;20.48;;
76675;SDS011;69204;55.350;36.906;2023-07-28T00:08:14;49.00;;;22.47;;
76675;SDS011;69204;55.350;36.906;2023-07-28T00:13:15;46.77;;;23.07;;
76675;SDS011;69204;55.350;36.906;2023-07-28T00:18:15;49.70;;;24.13;;
76675;SDS011;69204;55.350;36.906;2023-07-28T00:23:19;46.08;;;24.30;;
76675;SDS011;69204;55.350;36.906;2023-07-28T00:28:19;48.00;;;24.67;;
76675;SDS011;69204;55.350;36.906;2023-07-28T00:33:21;51.40;;;25.08;;
76675;SDS011;69204;55.350;36.906;2023-07-28T00:38:22;51.90;;;27.70;;
76675;SDS011;69204;55.350;36.906;2023-07-28T00:43:23;53.38;;;26.42;;
76675;SDS011;69204;55.350;36.906;2023-07-28T00:48:24;53.42;;;25.23;;
76675;SDS011;69204;55.350;36.906;2023-07-28T00:53:26;48.93;;;25.40;;
76675;SDS011;69204;55.350;36.906;2023-07-28T00:58:27;62.83;;;27.48;;
76675;SDS011;69204;55.350;36.906;2023-07-28T01:03:28;57.87;;;26.23;;
76675;SDS011;69204;55.350;36.906;2023-07-28T01:08:32;74.60;;;29.15;;
76675;SDS011;69204;55.350;36.906;2023-07-28T01:13:37;71.57;;;31.10;;
76675;SDS011;69204;55.350;36.906;2023-07-28T01:18:38;63.37;;;28.20;;
76675;SDS011;69204;55.350;36.906;2023-07-28T01:23:52;58.78;;;28.27;;
76675;SDS011;69204;55.350;36.906;2023-07-28T01:29:00;70.93;;;29.27;;
76675;SDS011;69204;55.350;36.906;2023-07-28T01:34:02;72.47;;;29.63;;
76675;SDS011;69204;55.350;36.906;2023-07-28T01:39:03;76.53;;;29.70;;
76675;SDS011;69204;55.350;36.906;2023-07-28T01:44:04;60.88;;;27.58;;
76675;SDS011;69204;55.350;36.906;2023-07-28T01:49:05;56.70;;;26.70;;
76675;SDS011;69204;55.350;36.906;2023-07-28T01:54:06;80.22;;;30.08;;
76675;SDS011;69204;55.350;36.906;2023-07-28T01:59:06;71.17;;;30.10;;
76675;SDS011;69204;55.350;36.906;2023-07-28T02:04:07;76.18;;;29.45;;
76675;SDS011;69204;55.350;36.906;2023-07-28T02:09:08;69.95;;;30.40;;
76675;SDS011;69204;55.350;36.906;2023-07-28T02:14:09;62.73;;;28.47;;
76675;SDS011;69204;55.350;36.906;2023-07-28T02:19:10;57.70;;;28.92;;
76675;SDS011;69204;55.350;36.906;2023-07-28T02:24:11;51.87;;;27.43;;
76675;SDS011;69204;55.350;36.906;2023-07-28T02:29:12;54.97;;;28.38;;
76675;SDS011;69204;55.350;36.906;2023-07-28T02:34:13;56.07;;;27.23;;
76675;SDS011;69204;55.350;36.906;2023-07-28T02:39:14;48.30;;;25.50;;
76675;SDS011;69204;55.350;36.906;2023-07-28T02:44:15;50.43;;;26.00;;
76675;SDS011;69204;55.350;36.906;2023-07-28T02:49:16;53.97;;;26.98;;
76675;SDS011;69204;55.350;36.906;2023-07-28T02:54:17;40.20;;;23.83;;
76675;SDS011;69204;55.350;36.906;2023-07-28T02:59:18;45.50;;;25.03;;
76675;SDS011;69204;55.350;36.906;2023-07-28T03:04:19;50.03;;;24.77;;
76675;SDS011;69204;55.350;36.906;2023-07-28T03:09:22;47.30;;;23.17;;
76675;SDS011;69204;55.350;36.906;2023-07-28T03:14:23;42.60;;;24.55;;
76675;SDS011;69204;55.350;36.906;2023-07-28T03:19:24;42.40;;;23.13;;
76675;SDS011;69204;55.350;36.906;2023-07-28T03:24:25;42.28;;;23.23;;
76675;SDS011;69204;55.350;36.906;2023-07-28T03:29:26;46.33;;;24.37;;
76675;SDS011;69204;55.350;36.906;2023-07-28T03:34:27;53.15;;;27.05;;
76675;SDS011;69204;55.350;36.906;2023-07-28T03:39:28;48.17;;;24.73;;
76675;SDS011;69204;55.350;36.906;2023-07-28T03:44:30;44.08;;;24.65;;
76675;SDS011;69204;55.350;36.906;2023-07-28T03:49:30;54.23;;;28.30;;
76675;SDS011;69204;55.350;36.906;2023-07-28T03:54:31;81.03;;;30.88;;
76675;SDS011;69204;55.350;36.906;2023-07-28T03:59:32;69.50;;;28.63;;
76675;SDS011;69204;55.350;36.906;2023-07-28T04:04:34;81.97;;;30.33;;
76675;SDS011;69204;55.350;36.906;2023-07-28T04:09:37;85.18;;;32.35;;
76675;SDS011;69204;55.350;36.906;2023-07-28T04:14:37;65.20;;;30.30;;
76675;SDS011;69204;55.350;36.906;2023-07-28T04:19:38;74.82;;;32.10;;
76675;SDS011;69204;55.350;36.906;2023-07-28T04:24:39;60.57;;;27.67;;
76675;SDS011;69204;55.350;36.906;2023-07-28T04:29:40;53.90;;;27.27;;
76675;SDS011;69204;55.350;36.906;2023-07-28T04:34:41;44.20;;;24.40;;
76675;SDS011;69204;55.350;36.906;2023-07-28T04:39:42;33.08;;;21.20;;
76675;SDS011;69204;55.350;36.906;2023-07-28T04:44:43;27.07;;;18.57;;
76675;SDS011;69204;55.350;36.906;2023-07-28T04:49:45;21.13;;;15.75;;
76675;SDS011;69204;55.350;36.906;2023-07-28T04:54:46;22.70;;;13.73;;
76675;SDS011;69204;55.350;36.906;2023-07-28T04:59:47;20.77;;;14.48;;
76675;SDS011;69204;55.350;36.906;2023-07-28T05:04:48;17.52;;;13.77;;
76675;SDS011;69204;55.350;36.906;2023-07-28T05:09:48;18.10;;;12.43;;
76675;SDS011;69204;55.350;36.906;2023-07-28T05:14:49;18.73;;;13.05;;
76675;SDS011;69204;55.350;36.906;2023-07-28T05:19:50;16.53;;;12.90;;
76675;SDS011;69204;55.350;36.906;2023-07-28T05:24:51;21.88;;;13.40;;
76675;SDS011;69204;55.350;36.906;2023-07-28T05:29:52;17.23;;;12.67;;
76675;SDS011;69204;55.350;36.906;2023-07-28T05:34:53;17.33;;;11.85;;
76675;SDS011;69204;55.350;36.906;2023-07-28T05:39:54;18.92;;;12.65;;
76675;SDS011;69204;55.350;36.906;2023-07-28T05:44:55;18.93;;;10.83;;
76675;SDS011;69204;55.350;36.906;2023-07-28T05:49:56;15.85;;;10.57;;
76675;SDS011;69204;55.350;36.906;2023-07-28T05:54:57;13.73;;;10.43;;
76675;SDS011;69204;55.350;36.906;2023-07-28T05:59:59;14.73;;;10.63;;
76675;SDS011;69204;55.350;36.906;2023-07-28T06:04:59;16.27;;;11.20;;
76675;SDS011;69204;55.350;36.906;2023-07-28T06:10:00;16.27;;;12.03;;
76675;SDS011;69204;55.350;36.906;2023-07-28T06:15:02;17.92;;;12.63;;
76675;SDS011;69204;55.350;36.906;2023-07-28T06:20:05;19.57;;;13.50;;
76675;SDS011;69204;55.350;36.906;2023-07-28T06:25:06;22.88;;;14.40;;
76675;SDS011;69204;55.350;36.906;2023-07-28T06:30:08;25.83;;;14.97;;
76675;SDS011;69204;55.350;36.906;2023-07-28T06:35:09;23.42;;;15.20;;
76675;SDS011;69204;55.350;36.906;2023-07-28T06:40:10;24.88;;;16.10;;
76675;SDS011;69204;55.350;36.906;2023-07-28T06:45:11;25.03;;;14.93;;
76675;SDS011;69204;55.350;36.906;2023-07-28T06:50:12;28.17;;;16.50;;
76675;SDS011;69204;55.350;36.906;2023-07-28T06:55:14;24.47;;;16.37;;
76675;SDS011;69204;55.350;36.906;2023-07-28T07:00:16;26.73;;;16.25;;
76675;SDS011;69204;55.350;36.906;2023-07-28T07:05:18;29.95;;;17.80;;
76675;SDS011;69204;55.350;36.906;2023-07-28T07:10:19;25.80;;;16.80;;
76675;SDS011;69204;55.350;36.906;2023-07-28T07:15:21;31.58;;;19.85;;
76675;SDS011;69204;55.350;36.906;2023-07-28T07:20:21;24.67;;;17.47;;
76675;SDS011;69204;55.350;36.906;2023-07-28T07:25:22;25.65;;;16.95;;
76675;SDS011;69204;55.350;36.906;2023-07-28T07:30:24;21.30;;;15.90;;
76675;SDS011;69204;55.350;36.906;2023-07-28T07:35:25;21.05;;;15.57;;
76675;SDS011;69204;55.350;36.906;2023-07-28T07:40:26;19.95;;;14.02;;
76675;SDS011;69204;55.350;36.906;2023-07-28T07:45:28;19.93;;;12.60;;
76675;SDS011;69204;55.350;36.906;2023-07-28T07:50:29;16.38;;;12.68;;
76675;SDS011;69204;55.350;36.906;2023-07-28T07:55:32;15.13;;;12.27;;
76675;SDS011;69204;55.350;36.906;2023-07-28T08:00:33;16.27;;;11.77;;
76675;SDS011;69204;55.350;36.906;2023-07-28T08:05:34;18.38;;;12.40;;
76675;SDS011;69204;55.350;36.906;2023-07-28T08:10:35;17.17;;;12.20;;
76675;SDS011;69204;55.350;36.906;2023-07-28T08:15:36;17.48;;;11.95;;
76675;SDS011;69204;55.350;36.906;2023-07-28T08:20:37;23.70;;;12.13;;
76675;SDS011;69204;55.350;36.906;2023-07-28T08:25:38;18.42;;;10.77;;
76675;SDS011;69204;55.350;36.906;2023-07-28T08:30:39;12.80;;;9.68;;
76675;SDS011;69204;55.350;36.906;2023-07-28T08:35:40;12.87;;;9.40;;
76675;SDS011;69204;55.350;36.906;2023-07-28T08:40:43;14.02;;;9.38;;
76675;SDS011;69204;55.350;36.906;2023-07-28T08:45:44;13.20;;;8.73;;
76675;SDS011;69204;55.350;36.906;2023-07-28T08:50:46;11.35;;;8.60;;
76675;SDS011;69204;55.350;36.906;2023-07-28T08:55:48;13.40;;;9.13;;
76675;SDS011;69204;55.350;36.906;2023-07-28T09:00:49;12.73;;;9.80;;
76675;SDS011;69204;55.350;36.906;2023-07-28T09:05:51;13.02;;;9.10;;
76675;SDS011;69204;55.350;36.906;2023-07-28T09:10:52;13.37;;;9.90;;
76675;SDS011;69204;55.350;36.906;2023-07-28T09:15:54;14.82;;;10.40;;
76675;SDS011;69204;55.350;36.906;2023-07-28T09:20:55;15.27;;;10.40;;
76675;SDS011;69204;55.350;36.906;2023-07-28T09:26:00;14.93;;;10.70;;
76675;SDS011;69204;55.350;36.906;2023-07-28T09:31:03;16.17;;;11.68;;
76675;SDS011;69204;55.350;36.906;2023-07-28T09:36:09;12.60;;;7.70;;
76675;SDS011;69204;55.350;36.906;2023-07-28T09:41:11;10.95;;;7.35;;
76675;SDS011;69204;55.350;36.906;2023-07-28T09:46:12;15.80;;;8.47;;
76675;SDS011;69204;55.350;36.906;2023-07-28T09:51:18;12.25;;;7.28;;
76675;SDS011;69204;55.350;36.906;2023-07-28T09:56:21;9.75;;;6.00;;
76675;SDS011;69204;55.350;36.906;2023-07-28T10:01:23;8.63;;;5.30;;
76675;SDS011;69204;55.350;36.906;2023-07-28T10:06:24;9.30;;;5.20;;
76675;SDS011;69204;55.350;36.906;2023-07-28T10:11:25;10.40;;;5.20;;
76675;SDS011;69204;55.350;36.906;2023-07-28T10:16:31;8.30;;;5.20;;
76675;SDS011;69204;55.350;36.906;2023-07-28T10:21:39;8.80;;;5.30;;
76675;SDS011;69204;55.350;36.906;2023-07-28T10:26:43;7.43;;;4.60;;
76675;SDS011;69204;55.350;36.906;2023-07-28T10:31:50;6.30;;;4.03;;
76675;SDS011;69204;55.350;36.906;2023-07-28T10:36:56;7.47;;;4.00;;
76675;SDS011;69204;55.350;36.906;2023-07-28T10:42:01;6.57;;;3.72;;
76675;SDS011;69204;55.350;36.906;2023-07-28T10:47:08;7.28;;;3.58;;
76675;SDS011;69204;55.350;36.906;2023-07-28T10:52:10;7.53;;;4.87;;
76675;SDS011;69204;55.350;36.906;2023-07-28T10:57:11;10.60;;;3.78;;
76675;SDS011;69204;55.350;36.906;2023-07-28T11:02:15;5.30;;;3.33;;
76675;SDS011;69204;55.350;36.906;2023-07-28T11:07:16;4.55;;;3.03;;
76675;SDS011;69204;55.350;36.906;2023-07-28T11:12:17;4.40;;;2.60;;
76675;SDS011;69204;55.350;36.906;2023-07-28T11:17:18;4.35;;;2.30;;
76675;SDS011;69204;55.350;36.906;2023-07-28T11:22:19;4.00;;;2.47;;
76675;SDS011;69204;55.350;36.906;2023-07-28T11:27:20;3.90;;;2.20;;
76675;SDS011;69204;55.350;36.906;2023-07-28T11:32:22;5.45;;;2.50;;
76675;SDS011;69204;55.350;36.906;2023-07-28T11:37:23;4.13;;;1.97;;
76675;SDS011;69204;55.350;36.906;2023-07-28T11:42:24;5.85;;;2.20;;
76675;SDS011;69204;55.350;36.906;2023-07-28T11:47:25;4.35;;;1.45;;
76675;SDS011;69204;55.350;36.906;2023-07-28T11:52:32;4.40;;;2.00;;
76675;SDS011;69204;55.350;36.906;2023-07-28T11:57:36;5.60;;;1.98;;
76675;SDS011;69204;55.350;36.906;2023-07-28T12:02:37;3.70;;;1.80;;
76675;SDS011;69204;55.350;36.906;2023-07-28T12:07:37;3.63;;;1.80;;
76675;SDS011;69204;55.350;36.906;2023-07-28T12:12:39;4.63;;;1.47;;
76675;SDS011;69204;55.350;36.906;2023-07-28T12:17:41;3.58;;;1.77;;
76675;SDS011;69204;55.350;36.906;2023-07-28T12:23:10;4.05;;;1.50;;
76675;SDS011;69204;55.350;36.906;2023-07-28T12:28:11;11.67;;;1.90;;
76675;SDS011;69204;55.350;36.906;2023-07-28T12:33:12;3.30;;;1.40;;
76675;SDS011;69204;55.350;36.906;2023-07-28T12:38:13;5.63;;;2.03;;
76675;SDS011;69204;55.350;36.906;2023-07-28T12:43:14;4.18;;;1.55;;
76675;SDS011;69204;55.350;36.906;2023-07-28T12:48:15;4.80;;;1.70;;
76675;SDS011;69204;55.350;36.906;2023-07-28T12:53:16;4.72;;;1.63;;
76675;SDS011;69204;55.350;36.906;2023-07-28T12:58:17;4.55;;;1.77;;
76675;SDS011;69204;55.350;36.906;2023-07-28T13:03:18;3.87;;;1.93;;
76675;SDS011;69204;55.350;36.906;2023-07-28T13:08:19;7.70;;;4.22;;
76675;SDS011;69204;55.350;36.906;2023-07-28T13:13:20;5.57;;;2.20;;
76675;SDS011;69204;55.350;36.906;2023-07-28T13:18:21;10.10;;;6.80;;
76675;SDS011;69204;55.350;36.906;2023-07-28T13:23:24;5.38;;;3.28;;
76675;SDS011;69204;55.350;36.906;2023-07-28T13:28:25;6.27;;;3.00;;
76675;SDS011;69204;55.350;36.906;2023-07-28T13:33:26;7.85;;;3.30;;
76675;SDS011;69204;55.350;36.906;2023-07-28T13:38:27;5.03;;;2.83;;
76675;SDS011;69204;55.350;36.906;2023-07-28T13:43:28;5.55;;;2.17;;
76675;SDS011;69204;55.350;36.906;2023-07-28T13:48:29;4.15;;;2.10;;
76675;SDS011;69204;55.350;36.906;2023-07-28T13:53:30;4.63;;;1.80;;
76675;SDS011;69204;55.350;36.906;2023-07-28T13:58:32;5.70;;;2.55;;
76675;SDS011;69204;55.350;36.906;2023-07-28T14:03:33;4.90;;;1.90;;
76675;SDS011;69204;55.350;36.906;2023-07-28T14:08:34;3.35;;;1.80;;
76675;SDS011;69204;55.350;36.906;2023-07-28T14:13:34;5.30;;;2.00;;
76675;SDS011;69204;55.350;36.906;2023-07-28T14:18:35;5.30;;;1.90;;
76675;SDS011;69204;55.350;36.906;2023-07-28T14:23:37;3.45;;;1.50;;
76675;SDS011;69204;55.350;36.906;2023-07-28T14:28:37;4.03;;;1.60;;
76675;SDS011;69204;55.350;36.906;2023-07-28T14:33:39;4.05;;;1.50;;
76675;SDS011;69204;55.350;36.906;2023-07-28T14:38:40;4.20;;;1.50;;
76675;SDS011;69204;55.350;36.906;2023-07-28T14:43:41;3.65;;;1.50;;
76675;SDS011;69204;55.350;36.906;2023-07-28T14:48:42;4.67;;;1.90;;
76675;SDS011;69204;55.350;36.906;2023-07-28T14:53:43;4.45;;;1.40;;
76675;SDS011;69204;55.350;36.906;2023-07-28T14:58:46;7.75;;;2.17;;
76675;SDS011;69204;55.350;36.906;2023-07-28T15:03:48;4.60;;;1.50;;
76675;SDS011;69204;55.350;36.906;2023-07-28T15:08:49;4.15;;;1.50;;
76675;SDS011;69204;55.350;36.906;2023-07-28T15:13:50;4.40;;;1.57;;
76675;SDS011;69204;55.350;36.906;2023-07-28T15:18:51;3.13;;;1.48;;
76675;SDS011;69204;55.350;36.906;2023-07-28T15:23:53;4.28;;;2.10;;
76675;SDS011;69204;55.350;36.906;2023-07-28T15:28:55;3.90;;;1.50;;
76675;SDS011;69204;55.350;36.906;2023-07-28T15:33:58;11.20;;;1.83;;
76675;SDS011;69204;55.350;36.906;2023-07-28T15:38:59;4.67;;;1.87;;
76675;SDS011;69204;55.350;36.906;2023-07-28T15:44:00;3.95;;;1.55;;
76675;SDS011;69204;55.350;36.906;2023-07-28T15:49:01;3.40;;;1.35;;
76675;SDS011;69204;55.350;36.906;2023-07-28T15:54:02;3.17;;;1.47;;
76675;SDS011;69204;55.350;36.906;2023-07-28T15:59:06;5.13;;;1.70;;
76675;SDS011;69204;55.350;36.906;2023-07-28T16:04:07;4.37;;;1.47;;
76675;SDS011;69204;55.350;36.906;2023-07-28T16:09:08;6.88;;;1.80;;
76675;SDS011;69204;55.350;36.906;2023-07-28T16:14:09;3.95;;;1.80;;
76675;SDS011;69204;55.350;36.906;2023-07-28T16:19:10;2.90;;;1.40;;
76675;SDS011;69204;55.350;36.906;2023-07-28T16:24:11;3.45;;;1.60;;
76675;SDS011;69204;55.350;36.906;2023-07-28T16:29:12;4.67;;;1.60;;
76675;SDS011;69204;55.350;36.906;2023-07-28T16:34:13;3.67;;;1.50;;
76675;SDS011;69204;55.350;36.906;2023-07-28T16:39:14;6.85;;;1.90;;
76675;SDS011;69204;55.350;36.906;2023-07-28T16:44:15;5.70;;;1.80;;
76675;SDS011;69204;55.350;36.906;2023-07-28T16:49:16;4.60;;;2.20;;
76675;SDS011;69204;55.350;36.906;2023-07-28T16:54:17;5.13;;;1.87;;
76675;SDS011;69204;55.350;36.906;2023-07-28T16:59:18;3.60;;;1.92;;
76675;SDS011;69204;55.350;36.906;2023-07-28T17:04:19;4.63;;;1.90;;
76675;SDS011;69204;55.350;36.906;2023-07-28T17:09:20;3.58;;;2.03;;
76675;SDS011;69204;55.350;36.906;2023-07-28T17:14:21;4.53;;;2.15;;
76675;SDS011;69204;55.350;36.906;2023-07-28T17:19:22;4.57;;;2.13;;
76675;SDS011;69204;55.350;36.906;2023-07-28T17:24:23;4.10;;;2.20;;
76675;SDS011;69204;55.350;36.906;2023-07-28T17:29:24;7.10;;;3.67;;
76675;SDS011;69204;55.350;36.906;2023-07-28T17:34:25;6.20;;;3.22;;
76675;SDS011;69204;55.350;36.906;2023-07-28T17:39:26;7.28;;;3.80;;
76675;SDS011;69204;55.350;36.906;2023-07-28T17:44:27;10.43;;;5.90;;
76675;SDS011;69204;55.350;36.906;2023-07-28T17:49:28;16.35;;;10.85;;
76675;SDS011;69204;55.350;36.906;2023-07-28T17:54:29;8.43;;;4.70;;
76675;SDS011;69204;55.350;36.906;2023-07-28T17:59:30;7.13;;;3.38;;
76675;SDS011;69204;55.350;36.906;2023-07-28T18:04:30;8.83;;;4.90;;
76675;SDS011;69204;55.350;36.906;2023-07-28T18:09:31;9.50;;;4.35;;
76675;SDS011;69204;55.350;36.906;2023-07-28T18:14:32;6.73;;;3.03;;
76675;SDS011;69204;55.350;36.906;2023-07-28T18:19:33;4.55;;;2.75;;
76675;SDS011;69204;55.350;36.906;2023-07-28T18:24:34;6.50;;;3.33;;
76675;SDS011;69204;55.350;36.906;2023-07-28T18:29:35;6.75;;;3.30;;
76675;SDS011;69204;55.350;36.906;2023-07-28T18:34:36;8.73;;;3.25;;
76675;SDS011;69204;55.350;36.906;2023-07-28T18:39:37;6.60;;;3.30;;
76675;SDS011;69204;55.350;36.906;2023-07-28T18:44:39;6.18;;;3.92;;
76675;SDS011;69204;55.350;36.906;2023-07-28T18:49:40;5.73;;;3.53;;
76675;SDS011;69204;55.350;36.906;2023-07-28T18:54:41;7.28;;;3.30;;
76675;SDS011;69204;55.350;36.906;2023-07-28T18:59:42;16.73;;;8.20;;
76675;SDS011;69204;55.350;36.906;2023-07-28T19:04:43;6.97;;;3.00;;
76675;SDS011;69204;55.350;36.906;2023-07-28T19:09:45;6.70;;;3.22;;
76675;SDS011;69204;55.350;36.906;2023-07-28T19:14:46;63.07;;;34.63;;
76675;SDS011;69204;55.350;36.906;2023-07-28T19:19:48;15.10;;;7.82;;
76675;SDS011;69204;55.350;36.906;2023-07-28T19:24:49;5.00;;;2.78;;
76675;SDS011;69204;55.350;36.906;2023-07-28T19:29:50;6.50;;;3.40;;
76675;SDS011;69204;55.350;36.906;2023-07-28T19:34:52;9.10;;;3.40;;
76675;SDS011;69204;55.350;36.906;2023-07-28T19:39:53;8.73;;;3.00;;
76675;SDS011;69204;55.350;36.906;2023-07-28T19:44:54;6.68;;;3.20;;
76675;SDS011;69204;55.350;36.906;2023-07-28T19:49:56;8.35;;;5.50;;
76675;SDS011;69204;55.350;36.906;2023-07-28T19:54:57;9.77;;;3.10;;
76675;SDS011;69204;55.350;36.906;2023-07-28T19:59:58;10.20;;;3.45;;
76675;SDS011;69204;55.350;36.906;2023-07-28T20:04:59;7.23;;;2.73;;
76675;SDS011;69204;55.350;36.906;2023-07-28T20:10:00;5.22;;;2.90;;
76675;SDS011;69204;55.350;36.906;2023-07-28T20:15:01;6.43;;;3.27;;
76675;SDS011;69204;55.350;36.906;2023-07-28T20:20:02;6.68;;;3.03;;
76675;SDS011;69204;55.350;36.906;2023-07-28T20:25:04;9.10;;;3.05;;
76675;SDS011;69204;55.350;36.906;2023-07-28T20:30:06;7.93;;;3.50;;
76675;SDS011;69204;55.350;36.906;2023-07-28T20:35:07;7.40;;;3.33;;
76675;SDS011;69204;55.350;36.906;2023-07-28T20:40:08;8.83;;;3.37;;
76675;SDS011;69204;55.350;36.906;2023-07-28T20:45:10;9.85;;;3.22;;
76675;SDS011;69204;55.350;36.906;2023-07-28T20:50:11;8.55;;;3.08;;
76675;SDS011;69204;55.350;36.906;2023-07-28T20:55:12;7.13;;;2.97;;
76675;SDS011;69204;55.350;36.906;2023-07-28T21:00:13;7.65;;;3.20;;
76675;SDS011;69204;55.350;36.906;2023-07-28T21:05:14;5.90;;;3.20;;
76675;SDS011;69204;55.350;36.906;2023-07-28T21:10:15;9.20;;;2.72;;
76675;SDS011;69204;55.350;36.906;2023-07-28T21:15:16;6.07;;;3.45;;
76675;SDS011;69204;55.350;36.906;2023-07-28T21:20:17;5.03;;;2.87;;
76675;SDS011;69204;55.350;36.906;2023-07-28T21:25:18;5.47;;;3.20;;
76675;SDS011;69204;55.350;36.906;2023-07-28T21:30:20;6.13;;;3.20;;
76675;SDS011;69204;55.350;36.906;2023-07-28T21:35:21;5.68;;;2.85;;
76675;SDS011;69204;55.350;36.906;2023-07-28T21:40:22;8.27;;;3.03;;
76675;SDS011;69204;55.350;36.906;2023-07-28T21:45:24;6.00;;;3.53;;
76675;SDS011;69204;55.350;36.906;2023-07-28T21:50:25;7.93;;;3.65;;
76675;SDS011;69204;55.350;36.906;2023-07-28T21:55:26;7.23;;;3.43;;
76675;SDS011;69204;55.350;36.906;2023-07-28T22:00:26;8.18;;;3.55;;
76675;SDS011;69204;55.350;36.906;2023-07-28T22:05:27;7.00;;;3.70;;
76675;SDS011;69204;55.350;36.906;2023-07-28T22:10:31;10.43;;;3.78;;
76675;SDS011;69204;55.350;36.906;2023-07-28T22:15:32;8.30;;;3.65;;
76675;SDS011;69204;55.350;36.906;2023-07-28T22:20:34;6.90;;;3.73;;
76675;SDS011;69204;55.350;36.906;2023-07-28T22:25:42;7.63;;;3.47;;
76675;SDS011;69204;55.350;36.906;2023-07-28T22:30:44;9.33;;;3.63;;
76675;SDS011;69204;55.350;36.906;2023-07-28T22:35:45;10.63;;;3.63;;
76675;SDS011;69204;55.350;36.906;2023-07-28T22:40:46;9.07;;;3.58;;
76675;SDS011;69204;55.350;36.906;2023-07-28T22:45:47;7.77;;;3.63;;
76675;SDS011;69204;55.350;36.906;2023-07-28T22:50:48;8.77;;;3.70;;
76675;SDS011;69204;55.350;36.906;2023-07-28T22:55:49;8.70;;;3.83;;
76675;SDS011;69204;55.350;36.906;2023-07-28T23:00:52;10.38;;;3.83;;
76675;SDS011;69204;55.350;36.906;2023-07-28T23:05:53;8.37;;;3.50;;
76675;SDS011;69204;55.350;36.906;2023-07-28T23:10:54;7.80;;;3.35;;
76675;SDS011;69204;55.350;36.906;2023-07-28T23:15:55;9.23;;;3.53;;
76675;SDS011;69204;55.350;36.906;2023-07-28T23:20:56;7.40;;;3.40;;
76675;SDS011;69204;55.350;36.906;2023-07-28T23:25:57;9.70;;;3.40;;
76675;SDS011;69204;55.350;36.906;2023-07-28T23:31:11;7.13;;;3.50;;
76675;SDS011;69204;55.350;36.906;2023-07-28T23:36:16;8.10;;;3.63;;
76675;SDS011;69204;55.350;36.906;2023-07-28T23:41:17;7.90;;;4.00;;
76675;SDS011;69204;55.350;36.906;2023-07-28T23:46:18;8.93;;;3.80;;
76675;SDS011;69204;55.350;36.906;2023-07-28T23:51:19;13.73;;;4.10;;
76675;SDS011;69204;55.350;36.906;2023-07-28T23:56:20;7.20;;;3.83;;
